Time;durP1;ratioP1;P1;durP2;ratioP2;P2;SDS_P1;SDS_P2;PMS_P1;PMS_P2;Temp;Humidity;BMP_temperature;BMP_pressure;BME280_temperature;BME280_humidity;BME280_pressure;Samples;Min_cycle;Max_cycle;Signal;HPM_P1;HPM_P2
2023/05/03 00:00:33;;;;;;;5.77;4.13;;;;;;;;;;5072699;28;20174;-69
2023/05/03 00:02:59;;;;;;;7.43;3.77;;;;;;;;;;5054882;28;20224;-69
2023/05/03 00:05:26;;;;;;;13.33;4.20;;;;;;;;;;5078778;22;20237;-67
2023/05/03 00:07:52;;;;;;;8.53;4.10;;;;;;;;;;5055031;28;20198;-67
2023/05/03 00:10:19;;;;;;;5.70;4.30;;;;;;;;;;5054317;28;20197;-68
2023/05/03 00:12:45;;;;;;;9.53;4.50;;;;;;;;;;5036456;28;20676;-68
2023/05/03 00:15:11;;;;;;;8.33;4.00;;;;;;;;;;5055202;28;20328;-67
2023/05/03 00:17:37;;;;;;;8.37;4.60;;;;;;;;;;5056542;28;20182;-67
2023/05/03 00:20:03;;;;;;;9.83;4.60;;;;;;;;;;5038517;28;20193;-67
2023/05/03 00:22:30;;;;;;;7.00;4.63;;;;;;;;;;5038551;28;20182;-67
2023/05/03 00:24:56;;;;;;;7.50;4.80;;;;;;;;;;5056254;28;20203;-68
2023/05/03 00:27:23;;;;;;;6.37;4.20;;;;;;;;;;5038802;28;20182;-68
2023/05/03 00:29:51;;;;;;;8.20;4.97;;;;;;;;;;5038395;28;20182;-67
2023/05/03 00:32:17;;;;;;;7.67;5.67;;;;;;;;;;5038340;28;20244;-67
2023/05/03 00:34:43;;;;;;;12.60;5.20;;;;;;;;;;5038227;28;20272;-67
2023/05/03 00:37:09;;;;;;;7.10;4.30;;;;;;;;;;5056644;28;20178;-67
2023/05/03 00:39:35;;;;;;;8.23;4.97;;;;;;;;;;5038779;28;20269;-68
2023/05/03 00:42:03;;;;;;;12.93;4.80;;;;;;;;;;5038823;28;20667;-67
2023/05/03 00:44:29;;;;;;;8.07;4.63;;;;;;;;;;5039440;28;20649;-68
2023/05/03 00:46:55;;;;;;;12.93;4.40;;;;;;;;;;5057564;28;20629;-67
2023/05/03 00:49:23;;;;;;;7.90;5.07;;;;;;;;;;5057776;28;20181;-66
2023/05/03 00:51:50;;;;;;;8.57;4.97;;;;;;;;;;5057579;28;20255;-67
2023/05/03 00:54:16;;;;;;;11.10;5.17;;;;;;;;;;5039177;28;20202;-67
2023/05/03 00:56:43;;;;;;;6.40;4.80;;;;;;;;;;5057029;28;20174;-66
2023/05/03 00:59:09;;;;;;;8.80;4.73;;;;;;;;;;5038787;28;20178;-67
2023/05/03 01:01:35;;;;;;;9.67;5.30;;;;;;;;;;5056975;28;20170;-67
2023/05/03 01:04:02;;;;;;;7.73;5.37;;;;;;;;;;5057014;28;20590;-67
2023/05/03 01:06:37;;;;;;;7.93;5.10;;;;;;;;;;5056577;28;20201;-68
2023/05/03 01:09:06;;;;;;;9.73;5.43;;;;;;;;;;5039277;28;20174;-67
2023/05/03 01:11:51;;;;;;;7.50;5.00;;;;;;;;;;5057606;28;20174;-66
2023/05/03 01:14:17;;;;;;;5.70;4.87;;;;;;;;;;5057159;28;20201;-66
2023/05/03 01:16:48;;;;;;;6.63;5.03;;;;;;;;;;5057512;28;20659;-66
2023/05/03 01:19:26;;;;;;;9.30;4.97;;;;;;;;;;5058067;28;20254;-66
2023/05/03 01:21:59;;;;;;;6.87;4.73;;;;;;;;;;5039585;28;20218;-66
2023/05/03 01:24:25;;;;;;;9.50;4.90;;;;;;;;;;5057269;28;20194;-66
2023/05/03 01:26:51;;;;;;;7.93;4.80;;;;;;;;;;5039228;28;20657;-66
2023/05/03 01:29:17;;;;;;;11.93;4.93;;;;;;;;;;5056870;28;20186;-68
2023/05/03 01:31:45;;;;;;;7.73;4.80;;;;;;;;;;5056877;28;20263;-65
2023/05/03 01:34:17;;;;;;;12.00;5.87;;;;;;;;;;5039043;28;20171;-66
2023/05/03 01:36:44;;;;;;;7.83;4.60;;;;;;;;;;5056655;28;20174;-67
2023/05/03 01:39:14;;;;;;;8.53;5.03;;;;;;;;;;5056021;28;20182;-66
2023/05/03 01:41:41;;;;;;;9.67;5.00;;;;;;;;;;5038055;28;20216;-67
2023/05/03 01:44:08;;;;;;;7.50;5.20;;;;;;;;;;5037931;28;20186;-66
2023/05/03 01:46:34;;;;;;;7.43;4.83;;;;;;;;;;5056084;28;20205;-67
2023/05/03 01:49:00;;;;;;;8.70;4.87;;;;;;;;;;5056332;28;20664;-68
2023/05/03 01:51:26;;;;;;;9.83;5.20;;;;;;;;;;5038017;28;20182;-67
2023/05/03 01:53:52;;;;;;;9.80;4.97;;;;;;;;;;5056093;28;20258;-69
2023/05/03 01:56:21;;;;;;;7.73;4.97;;;;;;;;;;5038321;28;20742;-66
2023/05/03 01:58:47;;;;;;;7.37;5.37;;;;;;;;;;5038438;28;20182;-67
2023/05/03 02:01:13;;;;;;;10.57;5.43;;;;;;;;;;5037689;28;20564;-66
2023/05/03 02:03:39;;;;;;;7.23;5.20;;;;;;;;;;5056041;28;20179;-67
2023/05/03 02:06:05;;;;;;;7.40;5.77;;;;;;;;;;5037988;28;20218;-66
2023/05/03 02:08:31;;;;;;;10.57;5.40;;;;;;;;;;5038239;28;20185;-66
2023/05/03 02:10:57;;;;;;;12.03;5.47;;;;;;;;;;5055436;28;20170;-66
2023/05/03 02:13:23;;;;;;;8.03;5.63;;;;;;;;;;5037718;28;20243;-66
2023/05/03 02:15:49;;;;;;;10.07;5.23;;;;;;;;;;5055721;28;20248;-66
2023/05/03 02:18:17;;;;;;;7.93;5.67;;;;;;;;;;5037593;28;20710;-67
2023/05/03 02:20:46;;;;;;;6.20;5.60;;;;;;;;;;5037634;28;20691;-67
2023/05/03 02:23:12;;;;;;;9.03;5.67;;;;;;;;;;5037587;28;20187;-66
2023/05/03 02:25:39;;;;;;;9.60;5.53;;;;;;;;;;5055262;28;20210;-65
2023/05/03 02:28:05;;;;;;;10.27;6.27;;;;;;;;;;5037686;28;20228;-66
2023/05/03 02:30:32;;;;;;;7.10;5.30;;;;;;;;;;5037519;28;20563;-66
2023/05/03 02:32:58;;;;;;;8.73;5.20;;;;;;;;;;5055286;28;20229;-66
2023/05/03 02:35:25;;;;;;;7.80;5.47;;;;;;;;;;5037899;28;20203;-66
2023/05/03 02:37:51;;;;;;;9.00;5.83;;;;;;;;;;5037745;28;20178;-66
2023/05/03 02:40:17;;;;;;;9.30;5.67;;;;;;;;;;5056889;28;20182;-66
2023/05/03 02:42:43;;;;;;;9.27;5.67;;;;;;;;;;5056089;28;20658;-66
2023/05/03 02:45:09;;;;;;;7.83;5.40;;;;;;;;;;5055984;28;20230;-65
2023/05/03 02:47:35;;;;;;;10.50;6.43;;;;;;;;;;5055468;28;20179;-65
2023/05/03 02:50:01;;;;;;;10.07;6.37;;;;;;;;;;5055686;28;20658;-66
2023/05/03 02:52:27;;;;;;;7.57;6.50;;;;;;;;;;5037619;28;20589;-67
2023/05/03 02:54:53;;;;;;;12.43;6.60;;;;;;;;;;5037603;28;20207;-67
2023/05/03 02:57:19;;;;;;;9.37;6.57;;;;;;;;;;5037483;28;20320;-65
2023/05/03 02:59:45;;;;;;;11.20;6.87;;;;;;;;;;5054943;28;20660;-66
2023/05/03 03:02:11;;;;;;;8.10;6.30;;;;;;;;;;5036888;28;20178;-66
2023/05/03 03:04:37;;;;;;;9.63;6.80;;;;;;;;;;5054547;28;20773;-65
2023/05/03 03:07:03;;;;;;;9.33;6.30;;;;;;;;;;5055813;28;20166;-66
2023/05/03 03:09:29;;;;;;;8.70;5.77;;;;;;;;;;5055519;28;20178;-66
2023/05/03 03:11:55;;;;;;;10.37;6.30;;;;;;;;;;5037387;28;20256;-65
2023/05/03 03:14:21;;;;;;;9.33;5.93;;;;;;;;;;5037167;28;20205;-66
2023/05/03 03:16:47;;;;;;;8.07;6.10;;;;;;;;;;5054785;28;20265;-67
2023/05/03 03:19:12;;;;;;;10.80;6.57;;;;;;;;;;5054956;28;20209;-66
2023/05/03 03:21:38;;;;;;;9.90;6.00;;;;;;;;;;5036567;28;20174;-65
2023/05/03 03:24:05;;;;;;;11.13;5.80;;;;;;;;;;5054218;28;20178;-66
2023/05/03 03:26:31;;;;;;;14.27;6.37;;;;;;;;;;5054104;28;20177;-68
2023/05/03 03:28:57;;;;;;;11.83;6.37;;;;;;;;;;5036692;28;20183;-66
2023/05/03 03:31:24;;;;;;;10.70;6.20;;;;;;;;;;5054289;28;20193;-67
2023/05/03 03:33:50;;;;;;;10.17;5.20;;;;;;;;;;5036560;28;20206;-67
2023/05/03 03:36:16;;;;;;;13.37;6.27;;;;;;;;;;5036316;28;20203;-68
2023/05/03 03:38:42;;;;;;;9.57;5.47;;;;;;;;;;5036254;28;20183;-68
2023/05/03 03:41:08;;;;;;;9.53;5.90;;;;;;;;;;5054095;28;20185;-68
2023/05/03 03:43:34;;;;;;;8.57;5.07;;;;;;;;;;5054225;28;20178;-67
2023/05/03 03:46:00;;;;;;;10.17;5.63;;;;;;;;;;5036437;28;20201;-67
2023/05/03 03:48:26;;;;;;;6.93;5.23;;;;;;;;;;5037896;28;20558;-67
2023/05/03 03:50:52;;;;;;;6.77;5.33;;;;;;;;;;5040445;28;20186;-67
2023/05/03 03:53:18;;;;;;;12.90;5.90;;;;;;;;;;5058058;28;20288;-66
2023/05/03 03:55:45;;;;;;;11.10;5.60;;;;;;;;;;5040696;28;20198;-65
2023/05/03 03:58:11;;;;;;;17.00;6.13;;;;;;;;;;5058689;28;20173;-67
2023/05/03 04:00:37;;;;;;;10.70;5.70;;;;;;;;;;5057943;28;20178;-67
2023/05/03 04:03:05;;;;;;;11.47;6.53;;;;;;;;;;5058191;28;20655;-67
2023/05/03 04:05:31;;;;;;;16.40;7.30;;;;;;;;;;5039976;28;20218;-66
2023/05/03 04:07:57;;;;;;;16.53;6.20;;;;;;;;;;5057946;28;20549;-67
2023/05/03 04:10:23;;;;;;;12.43;6.47;;;;;;;;;;5058054;28;20248;-67
2023/05/03 04:12:49;;;;;;;9.03;6.43;;;;;;;;;;5058284;28;20684;-68
2023/05/03 04:15:15;;;;;;;12.60;6.90;;;;;;;;;;5057804;28;20295;-66
2023/05/03 04:17:41;;;;;;;10.40;6.43;;;;;;;;;;5058114;28;20558;-66
2023/05/03 04:20:09;;;;;;;11.90;6.23;;;;;;;;;;5058058;28;20167;-66
2023/05/03 04:22:37;;;;;;;11.60;6.40;;;;;;;;;;5058052;28;20186;-67
2023/05/03 04:25:03;;;;;;;13.53;6.77;;;;;;;;;;5058259;28;20221;-67
2023/05/03 04:27:29;;;;;;;9.60;5.07;;;;;;;;;;5057841;28;20178;-65
2023/05/03 04:29:56;;;;;;;12.40;6.87;;;;;;;;;;5039736;28;20235;-67
2023/05/03 04:32:22;;;;;;;15.67;6.63;;;;;;;;;;5039642;28;20293;-69
2023/05/03 04:34:50;;;;;;;10.73;7.10;;;;;;;;;;5057950;28;20194;-67
2023/05/03 04:37:16;;;;;;;15.40;7.57;;;;;;;;;;5057329;28;20179;-67
2023/05/03 04:39:42;;;;;;;10.77;6.87;;;;;;;;;;5039479;28;20186;-67
2023/05/03 04:42:09;;;;;;;13.33;7.07;;;;;;;;;;5057388;28;20179;-67
2023/05/03 04:44:35;;;;;;;12.60;6.57;;;;;;;;;;5039440;28;20209;-66
2023/05/03 04:47:01;;;;;;;14.40;7.00;;;;;;;;;;5039563;28;20193;-67
2023/05/03 04:49:27;;;;;;;12.10;6.97;;;;;;;;;;5039364;28;20210;-66
2023/05/03 04:51:54;;;;;;;9.67;6.20;;;;;;;;;;5057224;28;20711;-65
2023/05/03 04:54:20;;;;;;;12.83;7.53;;;;;;;;;;5039241;28;20198;-66
2023/05/03 04:56:46;;;;;;;13.90;7.20;;;;;;;;;;5039203;28;20179;-66
2023/05/03 04:59:12;;;;;;;10.57;6.90;;;;;;;;;;5057693;28;20178;-67
2023/05/03 05:01:38;;;;;;;12.67;7.17;;;;;;;;;;5038760;28;20554;-68
2023/05/03 05:04:04;;;;;;;13.37;7.33;;;;;;;;;;5056868;28;20224;-66
2023/05/03 05:06:30;;;;;;;14.03;7.20;;;;;;;;;;5056931;28;20595;-67
2023/05/03 05:08:56;;;;;;;16.93;7.77;;;;;;;;;;5056660;28;20194;-67
2023/05/03 05:11:22;;;;;;;12.57;7.43;;;;;;;;;;5056949;28;20194;-67
2023/05/03 05:13:48;;;;;;;12.33;7.33;;;;;;;;;;5039045;28;20255;-68
2023/05/03 05:16:14;;;;;;;12.30;6.77;;;;;;;;;;5056999;28;20606;-66
2023/05/03 05:18:40;;;;;;;13.13;7.33;;;;;;;;;;5038748;28;20185;-65
2023/05/03 05:21:06;;;;;;;13.07;6.57;;;;;;;;;;5056742;28;20175;-65
2023/05/03 05:23:32;;;;;;;14.20;5.73;;;;;;;;;;5039142;28;20267;-66
2023/05/03 05:25:59;;;;;;;14.10;6.00;;;;;;;;;;5057117;28;20550;-66
2023/05/03 05:28:26;;;;;;;11.20;6.07;;;;;;;;;;5038929;28;20262;-65
2023/05/03 05:30:52;;;;;;;8.77;6.17;;;;;;;;;;5056809;28;20178;-68
2023/05/03 05:33:18;;;;;;;9.03;6.30;;;;;;;;;;5055776;28;20202;-67
2023/05/03 05:35:45;;;;;;;10.63;5.87;;;;;;;;;;5038001;28;20190;-65
2023/05/03 05:38:11;;;;;;;14.80;6.70;;;;;;;;;;5038866;28;20265;-68
2023/05/03 05:40:37;;;;;;;12.83;6.10;;;;;;;;;;5055555;28;20175;-65
2023/05/03 05:43:03;;;;;;;8.70;5.60;;;;;;;;;;5055166;28;20175;-65
2023/05/03 05:45:29;;;;;;;9.90;5.37;;;;;;;;;;5038249;28;20247;-67
2023/05/03 05:47:55;;;;;;;15.33;6.03;;;;;;;;;;5055484;28;20610;-68
2023/05/03 05:50:21;;;;;;;11.47;5.80;;;;;;;;;;5055347;28;20652;-67
2023/05/03 05:52:48;;;;;;;15.67;6.57;;;;;;;;;;5055719;28;20213;-68
2023/05/03 05:55:15;;;;;;;10.07;5.60;;;;;;;;;;5037228;28;20194;-66
2023/05/03 05:57:41;;;;;;;11.07;6.20;;;;;;;;;;5055830;28;20181;-66
2023/05/03 06:00:13;;;;;;;9.73;5.10;;;;;;;;;;5055406;28;20548;-66
2023/05/03 06:02:40;;;;;;;10.03;6.27;;;;;;;;;;5055804;28;20167;-67
2023/05/03 06:05:06;;;;;;;13.50;6.50;;;;;;;;;;5055077;28;20635;-67
2023/05/03 06:07:32;;;;;;;7.50;4.70;;;;;;;;;;5036873;28;20182;-67
2023/05/03 06:09:58;;;;;;;10.27;5.90;;;;;;;;;;5054833;28;20549;-65
2023/05/03 06:12:24;;;;;;;7.93;5.43;;;;;;;;;;5035608;28;20263;-66
2023/05/03 06:14:50;;;;;;;11.17;5.87;;;;;;;;;;5051483;22;20317;-70
2023/05/03 06:17:16;;;;;;;15.00;5.80;;;;;;;;;;5036507;28;20213;-69
2023/05/03 06:19:42;;;;;;;11.23;5.90;;;;;;;;;;5036370;28;20171;-69
2023/05/03 06:22:08;;;;;;;10.23;6.87;;;;;;;;;;5036497;28;20186;-69
2023/05/03 06:24:34;;;;;;;9.77;6.07;;;;;;;;;;5036433;28;20182;-69
2023/05/03 06:27:00;;;;;;;12.30;6.53;;;;;;;;;;5054366;28;20186;-69
2023/05/03 06:29:27;;;;;;;10.17;6.63;;;;;;;;;;5036550;28;20179;-69
2023/05/03 06:31:53;;;;;;;15.27;7.00;;;;;;;;;;5036308;28;20209;-69
2023/05/03 06:34:20;;;;;;;9.03;6.47;;;;;;;;;;5054454;28;20198;-69
2023/05/03 06:36:46;;;;;;;11.20;6.37;;;;;;;;;;5036023;28;20175;-69
2023/05/03 06:39:12;;;;;;;14.77;6.50;;;;;;;;;;5055088;28;20571;-69
2023/05/03 06:41:38;;;;;;;14.67;7.00;;;;;;;;;;5036442;28;20210;-69
2023/05/03 06:44:06;;;;;;;8.87;5.67;;;;;;;;;;5054438;28;20606;-69
2023/05/03 06:46:31;;;;;;;6.20;4.83;;;;;;;;;;5035961;28;20672;-69
2023/05/03 06:48:57;;;;;;;13.03;7.60;;;;;;;;;;5054348;28;20178;-69
2023/05/03 06:51:27;;;;;;;14.43;7.00;;;;;;;;;;5053840;28;20678;-69
2023/05/03 06:53:56;;;;;;;15.80;7.43;;;;;;;;;;5035718;28;20268;-69
2023/05/03 06:56:22;;;;;;;9.43;6.43;;;;;;;;;;5053523;28;20194;-69
2023/05/03 06:58:48;;;;;;;15.23;6.57;;;;;;;;;;5035599;28;20197;-69
2023/05/03 07:01:14;;;;;;;13.13;5.77;;;;;;;;;;5053427;28;20240;-69
2023/05/03 07:03:40;;;;;;;8.83;5.80;;;;;;;;;;5053571;28;20175;-69
2023/05/03 07:06:06;;;;;;;10.10;6.13;;;;;;;;;;5035730;28;20210;-69
2023/05/03 07:08:32;;;;;;;9.93;5.73;;;;;;;;;;5035697;28;20328;-69
2023/05/03 07:10:58;;;;;;;14.53;6.57;;;;;;;;;;5053515;28;20178;-69
2023/05/03 07:13:24;;;;;;;13.37;6.47;;;;;;;;;;5053539;28;20198;-69
2023/05/03 07:15:50;;;;;;;12.13;5.87;;;;;;;;;;5035266;28;20214;-69
2023/05/03 07:18:16;;;;;;;11.13;5.73;;;;;;;;;;5053283;28;20181;-69
2023/05/03 07:20:42;;;;;;;14.10;5.73;;;;;;;;;;5035472;28;20600;-69
2023/05/03 07:23:08;;;;;;;10.67;5.93;;;;;;;;;;5035204;28;20206;-69
2023/05/03 07:25:34;;;;;;;15.97;6.47;;;;;;;;;;5035302;28;20237;-69
2023/05/03 07:28:01;;;;;;;10.00;5.93;;;;;;;;;;5053595;28;20174;-69
2023/05/03 07:30:28;;;;;;;11.67;5.90;;;;;;;;;;5056144;28;20265;-67
2023/05/03 07:32:54;;;;;;;7.93;4.90;;;;;;;;;;5036539;28;20208;-69
2023/05/03 07:35:22;;;;;;;5.37;4.10;;;;;;;;;;5036126;28;20225;-69
2023/05/03 07:37:48;;;;;;;10.67;5.53;;;;;;;;;;5053590;28;20175;-69
2023/05/03 07:40:14;;;;;;;9.03;5.30;;;;;;;;;;5053555;28;20179;-69
2023/05/03 07:42:40;;;;;;;10.90;5.13;;;;;;;;;;5036318;28;20559;-69
2023/05/03 07:45:06;;;;;;;10.30;5.27;;;;;;;;;;5036227;28;20206;-70
2023/05/03 07:47:36;;;;;;;18.97;5.77;;;;;;;;;;5053671;28;20232;-69
2023/05/03 07:50:04;;;;;;;5.77;3.90;;;;;;;;;;5053610;28;20174;-69
2023/05/03 07:52:30;;;;;;;8.10;4.40;;;;;;;;;;5035654;28;20210;-67
2023/05/03 07:54:56;;;;;;;10.53;4.37;;;;;;;;;;5053541;28;20202;-68
2023/05/03 07:57:23;;;;;;;8.17;3.77;;;;;;;;;;5053254;28;20305;-69
2023/05/03 07:59:49;;;;;;;10.70;3.87;;;;;;;;;;5053196;28;20775;-67
2023/05/03 08:02:15;;;;;;;6.53;3.00;;;;;;;;;;5053529;28;20206;-67
2023/05/03 08:04:41;;;;;;;5.43;3.70;;;;;;;;;;5053046;28;20206;-67
2023/05/03 08:07:07;;;;;;;9.27;3.87;;;;;;;;;;5035433;28;20240;-68
2023/05/03 08:09:33;;;;;;;10.37;4.70;;;;;;;;;;5052749;28;20182;-68
2023/05/03 08:12:01;;;;;;;9.73;4.43;;;;;;;;;;5034663;28;20215;-68
2023/05/03 08:14:27;;;;;;;7.20;4.20;;;;;;;;;;5034863;28;20185;-68
2023/05/03 08:16:53;;;;;;;5.70;3.63;;;;;;;;;;5052958;28;20261;-67
2023/05/03 08:19:19;;;;;;;3.97;2.97;;;;;;;;;;5052945;28;20174;-68
2023/05/03 08:21:46;;;;;;;7.30;4.20;;;;;;;;;;5039140;28;20189;-68
2023/05/03 08:24:12;;;;;;;8.83;3.47;;;;;;;;;;5039422;28;20656;-68
2023/05/03 08:26:39;;;;;;;2.87;2.57;;;;;;;;;;5036175;28;20198;-68
2023/05/03 08:29:05;;;;;;;12.57;4.77;;;;;;;;;;5036258;28;20557;-68
2023/05/03 08:31:31;;;;;;;8.53;4.00;;;;;;;;;;5053299;28;20175;-67
2023/05/03 08:33:57;;;;;;;8.10;4.40;;;;;;;;;;5035610;28;20221;-67
2023/05/03 08:36:22;;;;;;;6.00;3.80;;;;;;;;;;5055356;28;20217;-68
2023/05/03 08:38:49;;;;;;;5.10;3.30;;;;;;;;;;5038424;28;20174;-68
2023/05/03 08:41:23;;;;;;;7.60;4.60;;;;;;;;;;5038374;28;20174;-68
2023/05/03 08:43:52;;;;;;;7.50;4.27;;;;;;;;;;5056125;28;20202;-68
2023/05/03 08:46:18;;;;;;;6.67;4.90;;;;;;;;;;5056097;28;20259;-68
2023/05/03 08:48:46;;;;;;;5.50;3.53;;;;;;;;;;5038139;28;20210;-68
2023/05/03 08:51:13;;;;;;;7.07;3.70;;;;;;;;;;5056180;28;20186;-68
2023/05/03 08:53:39;;;;;;;5.50;4.00;;;;;;;;;;5056057;28;20210;-68
2023/05/03 08:56:06;;;;;;;8.87;3.80;;;;;;;;;;5055935;28;20229;-68
2023/05/03 08:58:34;;;;;;;5.93;3.10;;;;;;;;;;5038001;28;20200;-67
2023/05/03 09:01:04;;;;;;;7.70;4.47;;;;;;;;;;5037882;28;20209;-67
2023/05/03 09:03:30;;;;;;;7.13;4.20;;;;;;;;;;5038030;28;20188;-68
2023/05/03 09:06:00;;;;;;;6.93;4.33;;;;;;;;;;5055796;28;20202;-68
2023/05/03 09:08:27;;;;;;;4.90;3.67;;;;;;;;;;5037844;28;20192;-68
2023/05/03 09:10:53;;;;;;;8.03;4.60;;;;;;;;;;5037820;28;20189;-68
2023/05/03 09:13:19;;;;;;;6.87;3.93;;;;;;;;;;5056065;28;20202;-68
2023/05/03 09:15:55;;;;;;;6.53;4.33;;;;;;;;;;5037944;28;20263;-68
2023/05/03 09:18:22;;;;;;;6.10;4.30;;;;;;;;;;5055623;28;20181;-68
2023/05/03 09:20:52;;;;;;;6.50;4.20;;;;;;;;;;5037524;28;20648;-68
2023/05/03 09:23:30;;;;;;;8.80;4.57;;;;;;;;;;5037684;28;20186;-67
2023/05/03 09:25:56;;;;;;;6.90;3.70;;;;;;;;;;5037533;28;20210;-68
2023/05/03 09:28:22;;;;;;;6.70;4.40;;;;;;;;;;5037596;28;20197;-68
2023/05/03 09:30:49;;;;;;;6.07;4.37;;;;;;;;;;5037559;28;20186;-68
2023/05/03 09:33:21;;;;;;;6.77;4.17;;;;;;;;;;5055258;28;20206;-68
2023/05/03 09:36:00;;;;;;;6.93;4.10;;;;;;;;;;5055245;28;20197;-68
2023/05/03 09:38:27;;;;;;;6.33;4.27;;;;;;;;;;5037227;28;20182;-68
2023/05/03 09:40:53;;;;;;;9.47;4.50;;;;;;;;;;5037119;28;20778;-69
2023/05/03 09:43:19;;;;;;;6.17;4.40;;;;;;;;;;5037244;28;20210;-69
2023/05/03 09:45:45;;;;;;;5.70;4.20;;;;;;;;;;5054696;28;20230;-68
2023/05/03 09:48:11;;;;;;;8.80;4.50;;;;;;;;;;5037057;28;20182;-68
2023/05/03 09:50:37;;;;;;;6.13;4.33;;;;;;;;;;5037001;28;20186;-68
2023/05/03 09:53:05;;;;;;;7.00;3.80;;;;;;;;;;5055155;28;20238;-68
2023/05/03 09:55:35;;;;;;;10.03;4.10;;;;;;;;;;5055247;28;20203;-68
2023/05/03 09:58:05;;;;;;;6.60;4.40;;;;;;;;;;5037188;28;20174;-68
2023/05/03 10:00:33;;;;;;;6.93;3.67;;;;;;;;;;5037008;28;20197;-69
2023/05/03 10:03:00;;;;;;;8.77;4.63;;;;;;;;;;5036604;28;20269;-69
2023/05/03 10:05:31;;;;;;;6.90;4.63;;;;;;;;;;5036901;28;20202;-68
2023/05/03 10:07:58;;;;;;;8.30;5.10;;;;;;;;;;5055876;28;20189;-68
2023/05/03 10:10:25;;;;;;;6.13;4.00;;;;;;;;;;5036629;28;20186;-68
2023/05/03 10:12:52;;;;;;;7.17;4.40;;;;;;;;;;5036643;28;20252;-68
2023/05/03 10:15:19;;;;;;;5.73;4.40;;;;;;;;;;5036172;28;20218;-69
2023/05/03 10:17:46;;;;;;;6.87;4.07;;;;;;;;;;5054498;28;20520;-69
2023/05/03 10:20:14;;;;;;;6.07;4.70;;;;;;;;;;5054681;28;20257;-68
2023/05/03 10:22:59;;;;;;;7.47;4.83;;;;;;;;;;5054547;28;20175;-67
2023/05/03 10:25:25;;;;;;;6.40;4.60;;;;;;;;;;5036214;28;20198;-67
2023/05/03 10:27:51;;;;;;;5.83;4.00;;;;;;;;;;5036364;28;20178;-67
2023/05/03 10:30:27;;;;;;;6.57;4.57;;;;;;;;;;5036381;28;20186;-68
2023/05/03 10:32:54;;;;;;;11.07;5.20;;;;;;;;;;5036120;28;20198;-67
2023/05/03 10:35:20;;;;;;;7.80;4.50;;;;;;;;;;5053964;28;20194;-67
2023/05/03 10:37:48;;;;;;;4.97;4.47;;;;;;;;;;5036073;28;20178;-68
2023/05/03 10:40:15;;;;;;;6.60;4.63;;;;;;;;;;5036143;28;20179;-68
2023/05/03 10:42:56;;;;;;;7.80;5.17;;;;;;;;;;5036660;28;20252;-67
2023/05/03 10:45:27;;;;;;;6.83;5.23;;;;;;;;;;5053871;28;20194;-67
2023/05/03 10:48:11;;;;;;;7.40;4.87;;;;;;;;;;5053765;28;20182;-67
2023/05/03 10:50:41;;;;;;;5.73;4.00;;;;;;;;;;5053719;28;20636;-68
2023/05/03 10:53:07;;;;;;;6.33;4.10;;;;;;;;;;5053658;28;20281;-67
2023/05/03 10:55:33;;;;;;;8.30;4.70;;;;;;;;;;5035742;28;20205;-67
2023/05/03 10:58:00;;;;;;;5.40;4.53;;;;;;;;;;5053379;28;20179;-67
2023/05/03 11:00:29;;;;;;;3.13;2.77;;;;;;;;;;5037058;28;20174;-67
2023/05/03 11:03:14;;;;;;;9.20;4.90;;;;;;;;;;5035987;28;20193;-67
2023/05/03 11:05:41;;;;;;;6.80;4.30;;;;;;;;;;5035621;28;20699;-67
2023/05/03 11:08:16;;;;;;;5.70;4.20;;;;;;;;;;5035632;28;20193;-67
2023/05/03 11:10:43;;;;;;;8.50;4.17;;;;;;;;;;5035542;28;20182;-67
2023/05/03 11:13:09;;;;;;;8.37;4.23;;;;;;;;;;5035412;28;20281;-67
2023/05/03 11:15:36;;;;;;;5.50;3.77;;;;;;;;;;5053227;28;20206;-66
2023/05/03 11:18:02;;;;;;;5.70;4.10;;;;;;;;;;5035512;28;20196;-66
2023/05/03 11:20:28;;;;;;;5.10;3.50;;;;;;;;;;5035459;28;20265;-66
2023/05/03 11:22:55;;;;;;;5.17;4.10;;;;;;;;;;5035304;28;20186;-66
2023/05/03 11:28:25;;;;;;;7.57;4.40;;;;;;;;;;5053655;28;20165;-68
2023/05/03 11:30:51;;;;;;;4.13;3.40;;;;;;;;;;5035439;28;20188;-67
2023/05/03 11:33:17;;;;;;;5.90;3.97;;;;;;;;;;5053666;28;20664;-67
2023/05/03 11:35:43;;;;;;;12.63;4.10;;;;;;;;;;5035402;28;20221;-68
2023/05/03 11:38:10;;;;;;;4.90;3.80;;;;;;;;;;5053309;28;20181;-67
2023/05/03 11:40:38;;;;;;;7.70;3.70;;;;;;;;;;5035670;28;20178;-67
2023/05/03 11:43:04;;;;;;;5.73;3.90;;;;;;;;;;5053172;28;20265;-68
2023/05/03 11:45:47;;;;;;;6.50;4.57;;;;;;;;;;5035405;28;20210;-68
2023/05/03 11:48:13;;;;;;;10.43;5.07;;;;;;;;;;5035313;28;20225;-68
2023/05/03 11:50:56;;;;;;;10.70;5.07;;;;;;;;;;5053099;28;20257;-67
2023/05/03 11:53:23;;;;;;;9.10;4.60;;;;;;;;;;5053886;28;20197;-67
2023/05/03 11:55:50;;;;;;;7.83;3.50;;;;;;;;;;5053445;28;20194;-67
2023/05/03 11:58:17;;;;;;;5.57;4.27;;;;;;;;;;5035038;28;20186;-68
2023/05/03 12:00:44;;;;;;;9.87;4.10;;;;;;;;;;5034861;28;20277;-68
2023/05/03 12:03:10;;;;;;;9.77;4.60;;;;;;;;;;5052774;28;20178;-68
2023/05/03 12:05:36;;;;;;;5.60;4.20;;;;;;;;;;5052639;28;20201;-68
2023/05/03 12:08:03;;;;;;;6.17;3.87;;;;;;;;;;5052837;28;20667;-68
2023/05/03 12:10:32;;;;;;;6.40;3.90;;;;;;;;;;5038185;28;20662;-68
2023/05/03 12:12:59;;;;;;;5.57;4.20;;;;;;;;;;5038907;28;20209;-68
2023/05/03 12:15:29;;;;;;;5.37;3.90;;;;;;;;;;5056549;28;20297;-67
2023/05/03 12:17:55;;;;;;;7.07;4.20;;;;;;;;;;5056693;28;20187;-67
2023/05/03 12:20:22;;;;;;;8.17;4.73;;;;;;;;;;5056621;28;20170;-67
2023/05/03 12:22:49;;;;;;;8.00;4.57;;;;;;;;;;5038655;28;20674;-68
2023/05/03 12:25:15;;;;;;;6.23;4.53;;;;;;;;;;5056489;28;20198;-68
2023/05/03 12:27:41;;;;;;;4.87;4.13;;;;;;;;;;5056316;28;20186;-68
2023/05/03 12:30:10;;;;;;;7.00;4.23;;;;;;;;;;5056770;28;20675;-70
2023/05/03 12:32:37;;;;;;;5.97;4.40;;;;;;;;;;5039023;28;20217;-68
2023/05/03 12:35:03;;;;;;;6.43;4.33;;;;;;;;;;5038531;28;20206;-68
2023/05/03 12:37:30;;;;;;;6.87;4.43;;;;;;;;;;5056254;28;20174;-68
2023/05/03 12:39:56;;;;;;;6.77;4.63;;;;;;;;;;5056468;28;20208;-68
2023/05/03 12:42:22;;;;;;;7.83;4.33;;;;;;;;;;5038364;28;20194;-68
2023/05/03 12:44:48;;;;;;;6.13;3.73;;;;;;;;;;5056183;28;20730;-68
2023/05/03 12:47:14;;;;;;;7.97;4.50;;;;;;;;;;5056307;28;20632;-68
2023/05/03 12:49:40;;;;;;;7.60;4.30;;;;;;;;;;5057106;28;20276;-68
2023/05/03 12:52:06;;;;;;;6.80;4.10;;;;;;;;;;5038023;28;20275;-68
2023/05/03 12:54:34;;;;;;;7.53;4.50;;;;;;;;;;5038181;28;20551;-68
2023/05/03 12:57:02;;;;;;;5.93;4.50;;;;;;;;;;5056160;28;20220;-69
2023/05/03 12:59:29;;;;;;;4.43;4.03;;;;;;;;;;5056446;28;20181;-68
2023/05/03 13:01:55;;;;;;;7.93;4.47;;;;;;;;;;5056397;28;20179;-69
2023/05/03 13:04:21;;;;;;;7.13;4.23;;;;;;;;;;5055622;28;20175;-68
2023/05/03 13:06:51;;;;;;;7.53;5.20;;;;;;;;;;5037839;28;20711;-67
2023/05/03 13:09:18;;;;;;;5.47;4.40;;;;;;;;;;5037794;28;20178;-68
2023/05/03 13:11:45;;;;;;;9.73;5.30;;;;;;;;;;5056092;28;20232;-69
2023/05/03 13:14:13;;;;;;;7.53;4.50;;;;;;;;;;5037705;28;20725;-69
2023/05/03 13:16:40;;;;;;;8.87;4.77;;;;;;;;;;5055414;28;20210;-69
2023/05/03 13:19:06;;;;;;;5.50;4.37;;;;;;;;;;5055893;28;20171;-69
2023/05/03 13:21:32;;;;;;;8.53;4.53;;;;;;;;;;5037129;28;20189;-69
2023/05/03 13:23:58;;;;;;;6.63;4.60;;;;;;;;;;5055464;28;20170;-69
2023/05/03 13:26:24;;;;;;;8.97;4.63;;;;;;;;;;5055462;28;20198;-69
2023/05/03 13:28:50;;;;;;;10.13;6.17;;;;;;;;;;5055582;28;20645;-70
2023/05/03 13:31:16;;;;;;;9.63;6.37;;;;;;;;;;5037549;28;20190;-69
2023/05/03 13:33:42;;;;;;;20.10;15.50;;;;;;;;;;5055514;28;20209;-69
2023/05/03 13:36:08;;;;;;;6.13;4.37;;;;;;;;;;5055798;28;20194;-68
2023/05/03 13:38:35;;;;;;;6.40;4.53;;;;;;;;;;5055403;28;20178;-69
2023/05/03 13:41:05;;;;;;;5.60;4.77;;;;;;;;;;5056180;28;20232;-69
2023/05/03 13:43:31;;;;;;;6.17;4.43;;;;;;;;;;5056582;28;20174;-69
2023/05/03 13:46:00;;;;;;;7.07;5.00;;;;;;;;;;5046893;28;20297;-69
2023/05/03 13:48:26;;;;;;;7.47;4.63;;;;;;;;;;5057919;28;20182;-69
2023/05/03 13:50:52;;;;;;;8.57;4.77;;;;;;;;;;5056371;28;20182;-69
2023/05/03 13:53:19;;;;;;;6.40;4.30;;;;;;;;;;5055847;28;20695;-69
2023/05/03 13:55:45;;;;;;;4.37;3.90;;;;;;;;;;5055144;28;20205;-69
2023/05/03 13:58:11;;;;;;;10.10;4.53;;;;;;;;;;5037107;28;20174;-68
2023/05/03 14:00:37;;;;;;;5.43;4.33;;;;;;;;;;5054763;28;20182;-69
2023/05/03 14:03:03;;;;;;;4.73;4.30;;;;;;;;;;5055147;28;20178;-72
2023/05/03 14:05:29;;;;;;;8.30;3.93;;;;;;;;;;5055442;28;20255;-69
2023/05/03 14:07:56;;;;;;;8.10;4.77;;;;;;;;;;5037639;28;20190;-69
2023/05/03 14:10:22;;;;;;;6.23;4.50;;;;;;;;;;5037677;28;20661;-69
2023/05/03 14:12:48;;;;;;;4.13;3.60;;;;;;;;;;5037627;28;20206;-69
2023/05/03 14:15:14;;;;;;;8.70;4.80;;;;;;;;;;5036845;28;20715;-68
2023/05/03 14:17:42;;;;;;;7.50;5.07;;;;;;;;;;5054814;28;20186;-69
2023/05/03 14:20:10;;;;;;;6.77;4.73;;;;;;;;;;5054633;28;20174;-70
2023/05/03 14:22:36;;;;;;;5.30;4.50;;;;;;;;;;5036768;28;20197;-69
2023/05/03 14:25:03;;;;;;;8.13;5.40;;;;;;;;;;5054257;28;20680;-69
2023/05/03 14:27:29;;;;;;;7.03;4.83;;;;;;;;;;5054735;28;20270;-69
2023/05/03 14:29:55;;;;;;;8.53;4.63;;;;;;;;;;5054861;28;20661;-70
2023/05/03 14:32:23;;;;;;;7.00;4.93;;;;;;;;;;5035853;28;20206;-69
2023/05/03 14:34:49;;;;;;;8.07;4.90;;;;;;;;;;5036084;28;20198;-69
2023/05/03 14:37:15;;;;;;;5.77;4.03;;;;;;;;;;5054174;28;20645;-68
2023/05/03 14:39:41;;;;;;;7.93;4.63;;;;;;;;;;5054495;28;20171;-69